Latest Weather Observations for Gympie

IDQ60801

Issued at 5:02 pm EST Wednesday 25 May 2016 (issued every 30 minutes, with the page automatically refreshed every 10 minutes)

About weather observations | Map of weather stations | Latest weather observations for QLD | Other Formats
Station Details ID: 040093 Name: GYMPIE Lat: -26.18 Lon: 152.64 Height: 64.5 m
Data from the previous 72 hours. | See also: Recent months at Gympie
Date/Time
EST
Temp
°C
App
Temp
°C
Dew
Point
Rel
Hum
%
Delta-T
°C
Wind Press
QNH
hPa
Press
MSL
hPa
Rain
since 9 am
mm
Dir
 
Spd
km/h
Gust
km/h
Spd
kts
Gust
kts
25/05:00pm 21.2 19.0 3.4 31 8.5 E 4 6 2 3 1015.7 1015.6 0.0
25/04:30pm 23.1 20.1 2.0 25 10.0 E 7 13 4 7 1015.3 1015.2 0.0
25/04:00pm 24.5 21.5 0.8 21 11.0 NE 6 11 3 6 1015.2 1015.1 0.0
25/03:30pm 25.7 22.7 1.1 20 11.6 NE 6 11 3 6 1015.2 1015.1 0.0
25/03:00pm 25.7 22.4 0.4 19 11.8 E 7 13 4 7 1015.0 1014.9 0.0
25/02:30pm 25.6 22.2 -2.1 16 12.3 SE 6 9 3 5 1015.1 1015.0 0.0
25/02:00pm 25.4 22.5 -1.4 17 12.1 SSE 4 6 2 3 1015.3 1015.2 0.0
25/01:30pm 25.4 22.4 2.2 22 11.2 SSE 7 11 4 6 1015.6 1015.5 0.0
25/01:00pm 24.8 22.3 4.0 26 10.3 SSE 6 9 3 5 1016.0 1015.9 0.0
25/12:30pm 23.8 21.4 4.2 28 9.7 SSE 6 9 3 5 1016.5 1016.4 0.0
25/12:00pm 23.4 20.9 1.7 24 10.2 SE 4 9 2 5 1017.2 1017.1 0.0
25/11:30am 21.7 19.3 1.9 27 9.2 SSE 4 6 2 3 1017.8 1017.7 0.0
25/11:00am 20.5 18.1 2.3 30 8.5 SE 4 6 2 3 1018.1 1018.0 0.0
25/10:30am 19.6 17.9 4.1 36 7.4 N 2 4 1 2 1018.4 1018.3 0.0
25/10:00am 17.9 16.2 6.1 46 5.8 NNE 4 6 2 3 1018.6 1018.5 0.0
25/09:30am 14.5 14.5 9.7 73 2.5 CALM 0 2 0 1 1018.8 1018.7 0.0
25/09:00am 12.2 11.5 9.9 86 1.2 N 4 6 2 3 1018.6 1018.5 0.2
25/08:30am 9.3 9.1 9.2 99 0.0 CALM 0 0 0 0 1018.5 1018.4 0.2
25/08:00am 7.1 6.4 7.0 99 0.0 CALM 0 4 0 2 1018.2 1018.1 0.2
25/07:30am 5.2 4.1 5.1 99 0.0 CALM 0 0 0 0 1018.0 1017.9 0.2
25/07:00am 4.9 3.7 4.8 99 0.0 CALM 0 0 0 0 1017.8 1017.7 0.2
25/06:30am 5.4 4.3 5.3 99 0.0 CALM 0 0 0 0 1017.9 1017.8 0.2
25/06:00am 5.5 4.5 5.4 99 0.0 CALM 0 2 0 1 1017.9 1017.8 0.2
25/05:30am 6.5 5.7 6.4 99 0.0 CALM 0 4 0 2 1017.9 1017.8 0.2
25/05:00am 6.7 5.2 6.6 99 0.0 N 4 6 2 3 1017.4 1017.3 0.2
25/04:30am 7.4 6.8 7.3 99 0.0 CALM 0 0 0 0 1017.2 1017.1 0.0
25/04:00am 8.1 7.6 8.0 99 0.0 CALM 0 0 0 0 1017.0 1016.9 0.0
25/03:30am 8.6 8.3 8.5 99 0.0 CALM 0 0 0 0 1017.3 1017.2 0.0
25/03:00am 8.7 8.4 8.6 99 0.0 CALM 0 0 0 0 1017.5 1017.4 0.0
25/02:30am 9.4 9.3 9.3 99 0.0 CALM 0 0 0 0 1017.6 1017.5 0.0
25/02:00am 9.3 9.1 9.2 99 0.0 CALM 0 0 0 0 1017.8 1017.7 0.0
25/01:30am 9.6 9.5 9.5 99 0.0 CALM 0 0 0 0 1017.9 1017.8 0.0
25/01:00am 9.7 9.6 9.4 98 0.1 CALM 0 0 0 0 1018.0 1017.9 0.0
25/12:30am 10.8 11.0 10.6 99 0.1 CALM 0 2 0 1 1018.1 1018.0 0.0
25/12:00am 11.1 11.4 10.8 98 0.2 CALM 0 0 0 0 1018.1 1018.0 0.0
 
Date/Time
EST
Temp
°C
App
Temp
°C
Dew
Point
Rel
Hum
%
Delta-T
°C
Wind Press
QNH
hPa
Press
MSL
hPa
Rain
since 9 am
mm
Dir
 
Spd
km/h
Gust
km/h
Spd
kts
Gust
kts
24/11:30pm 11.7 12.1 11.2 97 0.3 CALM 0 0 0 0 1018.4 1018.3 0.0
24/11:00pm 12.9 13.7 12.7 99 0.1 CALM 0 0 0 0 1018.4 1018.3 0.0
24/10:30pm 12.9 13.7 12.4 97 0.3 CALM 0 0 0 0 1018.6 1018.5 0.0
24/10:00pm 13.6 14.5 13.0 96 0.3 CALM 0 0 0 0 1018.6 1018.5 0.0
24/09:30pm 14.0 15.0 13.1 94 0.5 CALM 0 0 0 0 1018.4 1018.3 0.0
24/09:00pm 14.6 15.7 13.5 93 0.6 CALM 0 0 0 0 1018.4 1018.3 0.0
24/08:30pm 15.7 17.2 14.6 93 0.6 CALM 0 0 0 0 1018.5 1018.4 0.0
24/08:00pm 16.3 17.7 14.5 89 1.0 CALM 0 0 0 0 1017.9 1017.8 0.0
24/07:30pm 16.9 18.3 14.4 85 1.4 CALM 0 0 0 0 1017.7 1017.6 0.0
24/07:00pm 17.6 18.7 14.7 83 1.7 WSW 2 4 1 2 1017.5 1017.4 0.0
24/06:30pm 19.1 20.9 15.6 80 2.1 CALM 0 0 0 0 1017.1 1017.0 0.0
24/06:00pm 20.6 21.9 15.2 71 3.2 NE 2 6 1 3 1016.7 1016.6 0.0
24/05:30pm 21.8 23.0 15.9 69 3.6 NNE 4 9 2 5 1016.2 1016.1 0.0
24/05:00pm 22.9 24.0 15.5 63 4.4 ENE 4 6 2 3 1015.7 1015.6 0.0
24/04:30pm 24.2 24.6 15.4 58 5.3 ENE 7 15 4 8 1015.1 1015.0 0.0
24/04:00pm 25.2 24.7 14.9 52 6.2 E 11 17 6 9 1014.8 1014.7 0.0
24/03:30pm 26.5 26.2 14.3 47 7.3 E 9 17 5 9 1014.4 1014.3 0.0
24/03:00pm 28.2 28.2 12.5 37 9.2 S 4 9 2 5 1014.2 1014.1 0.0
24/02:30pm 29.3 25.7 0.9 16 13.7 WSW 9 17 5 9 1014.1 1014.0 0.0
24/02:00pm 29.6 27.2 4.3 20 13.0 WSW 6 15 3 8 1014.2 1014.1 0.0
24/01:30pm 29.3 26.1 3.3 19 13.1 WSW 9 19 5 10 1014.4 1014.3 0.0
24/01:00pm 29.5 26.5 6.2 23 12.4 SSW 11 20 6 11 1014.7 1014.6 0.0
24/12:30pm 28.7 26.8 6.7 25 11.7 SSE 6 9 3 5 1015.1 1015.0 0.0
24/12:00pm 28.9 27.1 8.0 27 11.4 S 7 13 4 7 1015.5 1015.4 0.0
24/11:30am 28.3 26.0 7.5 27 11.2 SSW 9 17 5 9 1016.2 1016.1 0.0
24/11:00am 27.1 27.1 14.1 44 7.8 ESE 7 15 4 8 1016.8 1016.7 0.0
24/10:30am 26.0 26.2 14.1 47 7.1 SE 6 11 3 6 1017.3 1017.2 0.0
24/10:00am 24.6 26.2 15.0 55 5.8 CALM 0 2 0 1 1017.7 1017.6 0.0
24/09:30am 22.2 24.1 15.8 67 3.9 CALM 0 2 0 1 1018.1 1018.0 0.0
24/09:00am 20.1 22.1 16.1 78 2.4 CALM 0 0 0 0 1018.1 1018.0 0.0
24/08:30am 18.3 20.5 16.5 89 1.1 CALM 0 0 0 0 1018.0 1017.9 0.0
24/08:00am 15.9 17.7 15.6 98 0.2 CALM 0 0 0 0 1017.9 1017.8 0.0
24/07:30am 13.7 14.8 13.5 99 0.1 CALM 0 0 0 0 1017.6 1017.5 0.0
24/07:00am 12.9 13.7 12.7 99 0.1 CALM 0 0 0 0 1017.4 1017.3 0.0
24/06:30am 13.0 13.9 12.8 99 0.1 CALM 0 0 0 0 1017.1 1017.0 0.0
24/06:00am 12.8 13.6 12.6 99 0.1 CALM 0 0 0 0 1016.9 1016.8 0.0
24/05:30am 12.6 13.3 12.3 98 0.2 CALM 0 0 0 0 1016.7 1016.6 0.0
24/05:00am 12.5 12.8 12.2 98 0.2 NW 2 6 1 3 1016.7 1016.6 0.0
24/04:30am 12.8 13.6 12.5 98 0.2 CALM 0 0 0 0 1016.7 1016.6 0.0
24/04:00am 12.7 13.4 12.2 97 0.3 CALM 0 0 0 0 1016.6 1016.5 0.0
24/03:30am 13.3 14.2 12.8 97 0.3 CALM 0 0 0 0 1016.8 1016.7 0.0
24/03:00am 13.4 14.3 12.9 97 0.3 CALM 0 0 0 0 1017.0 1016.9 0.0
24/02:30am 13.8 14.8 13.3 97 0.3 CALM 0 0 0 0 1016.9 1016.8 0.0
24/02:00am 14.0 15.1 13.4 96 0.3 CALM 0 0 0 0 1017.0 1016.9 0.0
24/01:30am 14.3 15.5 13.7 96 0.3 CALM 0 0 0 0 1017.5 1017.4 0.0
24/01:00am 14.7 16.0 14.1 96 0.3 CALM 0 0 0 0 1017.7 1017.6 0.0
24/12:30am 14.8 16.1 14.0 95 0.5 CALM 0 0 0 0 1017.8 1017.7 0.0
24/12:00am 15.1 16.5 14.3 95 0.5 CALM 0 0 0 0 1017.9 1017.8 0.0
 
Date/Time
EST
Temp
°C
App
Temp
°C
Dew
Point
Rel
Hum
%
Delta-T
°C
Wind Press
QNH
hPa
Press
MSL
hPa
Rain
since 9 am
mm
Dir
 
Spd
km/h
Gust
km/h
Spd
kts
Gust
kts
23/11:30pm 15.7 17.4 15.1 96 0.3 CALM 0 0 0 0 1017.9 1017.8 0.0
23/11:00pm 15.6 17.0 14.3 92 0.7 CALM 0 0 0 0 1018.0 1017.9 0.0
23/10:30pm 15.9 17.3 14.3 90 0.9 CALM 0 0 0 0 1018.1 1018.0 0.0
23/10:00pm 16.5 18.1 14.9 90 0.9 CALM 0 0 0 0 1018.3 1018.2 0.0
23/09:30pm 16.8 18.3 14.6 87 1.3 CALM 0 0 0 0 1018.3 1018.2 0.0
23/09:00pm 17.1 18.8 15.1 88 1.2 CALM 0 0 0 0 1018.5 1018.4 0.0
23/08:30pm 17.4 19.0 14.9 85 1.5 CALM 0 0 0 0 1018.3 1018.2 0.0
23/08:00pm 17.9 19.5 14.8 82 1.8 CALM 0 0 0 0 1018.4 1018.3 0.0
23/07:30pm 19.4 21.2 15.5 78 2.3 CALM 0 0 0 0 1018.1 1018.0 0.0
23/07:00pm 19.5 21.0 14.7 74 2.8 CALM 0 0 0 0 1017.9 1017.8 0.0
23/06:30pm 20.9 21.8 15.0 69 3.5 N 4 6 2 3 1017.3 1017.2 0.0
23/06:00pm 21.7 22.9 14.8 65 4.1 NE 2 6 1 3 1017.1 1017.0 0.0
23/05:30pm 22.6 23.0 14.7 61 4.7 NNE 6 9 3 5 1016.8 1016.7 0.0
23/05:00pm 23.5 23.6 13.9 55 5.6 NE 6 9 3 5 1016.3 1016.2 0.0
23/04:30pm 24.6 24.2 12.5 46 7.0 NE 6 9 3 5 1016.1 1016.0 0.0
23/04:00pm 25.1 25.3 12.0 44 7.5 NE 2 6 1 3 1016.0 1015.9 0.0
23/03:30pm 25.7 25.1 11.8 42 8.0 NNE 6 9 3 5 1015.9 1015.8 0.0
23/03:00pm 25.8 25.5 11.6 41 8.1 ENE 4 6 2 3 1015.9 1015.8 0.0
23/02:30pm 26.6 26.6 12.3 41 8.3 NE 4 6 2 3 1015.9 1015.8 0.0
23/02:00pm 26.8 26.3 12.1 40 8.5 E 6 9 3 5 1016.1 1016.0 0.0
23/01:30pm 25.9 25.2 11.3 40 8.3 SSE 6 9 3 5 1016.5 1016.4 0.0
23/01:00pm 25.8 25.5 11.6 41 8.1 SE 4 6 2 3 1017.1 1017.0 0.0
23/12:30pm 25.2 25.4 13.1 47 7.1 S 4 6 2 3 1017.4 1017.3 0.0
23/12:00pm 25.0 24.8 12.9 47 7.0 ENE 6 9 3 5 1018.2 1018.1 0.0
23/11:30am 23.9 23.8 13.4 51 6.1 W 6 9 3 5 1019.0 1018.9 0.0
23/11:00am 23.3 24.3 14.3 57 5.3 WNW 2 4 1 2 1019.5 1019.4 0.0
23/10:30am 21.8 22.9 15.6 68 3.7 SSE 4 6 2 3 1020.2 1020.1 0.0
23/10:00am 19.5 21.1 16.0 80 2.1 SSE 2 4 1 2 1020.5 1020.4 0.0
23/09:30am 17.3 19.1 15.6 90 1.0 CALM 0 0 0 0 1021.0 1020.9 0.0
23/09:00am 15.0 16.6 14.8 99 0.1 CALM 0 0 0 0 1021.2 1021.1 0.0
23/08:30am 13.1 14.0 12.9 99 0.1 CALM 0 0 0 0 1021.2 1021.1 0.0
23/08:00am 12.0 12.6 11.8 99 0.1 CALM 0 0 0 0 1021.2 1021.1 0.0
23/07:30am 11.2 11.5 11.0 99 0.1 CALM 0 0 0 0 1021.4 1021.3 0.0
23/07:00am 10.6 10.8 10.4 99 0.1 CALM 0 0 0 0 1021.3 1021.2 0.0
23/06:30am 10.4 10.5 10.2 99 0.1 CALM 0 0 0 0 1021.1 1021.0 0.0
23/06:00am 10.4 10.5 10.2 99 0.1 CALM 0 0 0 0 1020.8 1020.7 0.0
23/05:30am 10.6 10.8 10.4 99 0.1 CALM 0 0 0 0 1020.6 1020.5 0.0
23/05:00am 10.8 11.0 10.6 99 0.1 CALM 0 0 0 0 1020.5 1020.4 0.0
23/04:30am 10.7 10.9 10.5 99 0.1 CALM 0 0 0 0 1020.4 1020.3 0.0
23/04:00am 10.9 11.1 10.7 99 0.1 CALM 0 0 0 0 1020.6 1020.5 0.0
23/03:30am 11.1 11.4 10.9 99 0.1 CALM 0 0 0 0 1020.5 1020.4 0.0
23/03:00am 10.8 11.0 10.6 99 0.1 CALM 0 0 0 0 1020.5 1020.4 0.0
23/02:30am 11.1 11.4 10.9 99 0.1 CALM 0 0 0 0 1020.6 1020.5 0.0
23/02:00am 11.4 11.8 11.2 99 0.1 CALM 0 0 0 0 1021.0 1020.9 0.0
23/01:30am 11.8 12.3 11.5 98 0.2 CALM 0 0 0 0 1021.1 1021.0 0.0
23/01:00am 11.9 12.4 11.7 99 0.1 CALM 0 0 0 0 1021.5 1021.4 0.0
23/12:30am 12.2 12.8 11.9 98 0.2 CALM 0 0 0 0 1021.6 1021.5 0.0
23/12:00am 12.7 13.4 12.1 96 0.3 CALM 0 0 0 0 1021.7 1021.6 0.0
 
Date/Time
EST
Temp
°C
App
Temp
°C
Dew
Point
Rel
Hum
%
Delta-T
°C
Wind Press
QNH
hPa
Press
MSL
hPa
Rain
since 9 am
mm
Dir
 
Spd
km/h
Gust
km/h
Spd
kts
Gust
kts
22/11:30pm 13.2 14.1 12.9 98 0.2 CALM 0 0 0 0 1021.8 1021.7 0.0
22/11:00pm 13.2 14.0 12.6 96 0.3 CALM 0 0 0 0 1021.8 1021.7 0.0
22/10:30pm 13.8 14.8 13.3 97 0.3 CALM 0 0 0 0 1021.8 1021.7 0.0
22/10:00pm 13.9 14.9 13.1 95 0.4 CALM 0 0 0 0 1022.1 1022.0 0.0
22/09:30pm 14.2 15.2 13.2 94 0.6 CALM 0 0 0 0 1022.0 1021.9 0.0
22/09:00pm 14.8 16.0 13.8 94 0.6 CALM 0 0 0 0 1022.1 1022.0 0.0
22/08:30pm 15.2 16.4 13.7 91 0.8 CALM 0 0 0 0 1022.2 1022.1 0.0
22/08:00pm 15.6 16.7 13.6 88 1.1 CALM 0 0 0 0 1022.1 1022.0 0.0
22/07:30pm 16.6 17.9 14.2 86 1.4 CALM 0 0 0 0 1022.1 1022.0 0.0
22/07:00pm 17.7 19.2 14.6 82 1.8 CALM 0 0 0 0 1022.0 1021.9 0.0
22/06:30pm 18.8 19.6 14.9 78 2.3 SE 4 4 2 2 1021.9 1021.8 0.0
22/06:00pm 19.1 19.8 14.6 75 2.6 SE 4 4 2 2 1021.7 1021.6 0.0
22/05:30pm 21.0 21.3 14.6 67 3.8 E 6 7 3 4 1021.6 1021.5 0.0

Other Formats:

Comma delimited format used in spreadsheet applications
http://www.bom.gov.au/fwo/IDQ60801/IDQ60801.94566.axf

JavaScript Object Notation format (JSON) in row-major order
http://www.bom.gov.au/fwo/IDQ60801/IDQ60801.94566.json